sensor_id;sensor_type;location;lat;lon;timestamp;pressure;altitude;pressure_sealevel;temperature;humidity
73870;BME280;64924;42.140;24.762;2022-11-20T00:01:23;99053.03;;;14.82;68.21
73870;BME280;64924;42.140;24.762;2022-11-20T00:03:51;99026.63;;;14.76;68.58
73870;BME280;64924;42.140;24.762;2022-11-20T00:06:18;99035.91;;;14.75;68.61
73870;BME280;64924;42.140;24.762;2022-11-20T00:08:44;99045.28;;;14.79;68.01
73870;BME280;64924;42.140;24.762;2022-11-20T00:11:15;99037.31;;;14.77;68.19
73870;BME280;64924;42.140;24.762;2022-11-20T00:13:42;99025.56;;;14.77;67.75
73870;BME280;64924;42.140;24.762;2022-11-20T00:16:12;99028.88;;;14.79;67.90
73870;BME280;64924;42.140;24.762;2022-11-20T00:18:39;98976.81;;;14.50;67.84
73870;BME280;64924;42.140;24.762;2022-11-20T00:21:10;99039.56;;;14.92;67.33
73870;BME280;64924;42.140;24.762;2022-11-20T00:23:38;99020.91;;;14.77;67.67
73870;BME280;64924;42.140;24.762;2022-11-20T00:26:09;99022.44;;;14.61;68.63
73870;BME280;64924;42.140;24.762;2022-11-20T00:28:35;99025.44;;;14.60;68.71
73870;BME280;64924;42.140;24.762;2022-11-20T00:31:11;99000.34;;;14.51;68.69
73870;BME280;64924;42.140;24.762;2022-11-20T00:33:37;99040.19;;;14.70;68.67
73870;BME280;64924;42.140;24.762;2022-11-20T00:36:05;99028.88;;;14.67;68.34
73870;BME280;64924;42.140;24.762;2022-11-20T00:38:32;99039.00;;;14.78;68.35
73870;BME280;64924;42.140;24.762;2022-11-20T00:40:59;99052.19;;;14.81;68.10
73870;BME280;64924;42.140;24.762;2022-11-20T00:43:25;99032.69;;;14.78;67.79
73870;BME280;64924;42.140;24.762;2022-11-20T00:46:05;99021.88;;;14.83;67.53
73870;BME280;64924;42.140;24.762;2022-11-20T00:48:30;99021.50;;;14.67;68.18
73870;BME280;64924;42.140;24.762;2022-11-20T00:50:56;99029.94;;;14.54;68.32
73870;BME280;64924;42.140;24.762;2022-11-20T00:53:22;99037.31;;;14.65;68.30
73870;BME280;64924;42.140;24.762;2022-11-20T00:55:55;99047.19;;;14.78;68.15
73870;BME280;64924;42.140;24.762;2022-11-20T00:58:22;99033.88;;;14.82;67.97
73870;BME280;64924;42.140;24.762;2022-11-20T01:00:47;99033.75;;;14.77;67.83
73870;BME280;64924;42.140;24.762;2022-11-20T01:03:15;99048.16;;;14.84;67.76
73870;BME280;64924;42.140;24.762;2022-11-20T01:05:41;99030.06;;;14.83;67.69
73870;BME280;64924;42.140;24.762;2022-11-20T01:08:06;99028.53;;;14.75;67.75
73870;BME280;64924;42.140;24.762;2022-11-20T01:10:32;99043.75;;;14.83;67.66
73870;BME280;64924;42.140;24.762;2022-11-20T01:12:57;99039.00;;;14.78;67.43
73870;BME280;64924;42.140;24.762;2022-11-20T01:15:41;98996.19;;;14.60;67.44
73870;BME280;64924;42.140;24.762;2022-11-20T01:18:07;99022.22;;;14.75;67.61
73870;BME280;64924;42.140;24.762;2022-11-20T01:20:36;99026.63;;;14.76;67.79
73870;BME280;64924;42.140;24.762;2022-11-20T01:23:03;99018.19;;;14.77;67.62
73870;BME280;64924;42.140;24.762;2022-11-20T01:25:28;99025.56;;;14.77;67.77
73870;BME280;64924;42.140;24.762;2022-11-20T01:27:54;99021.75;;;14.78;67.75
73870;BME280;64924;42.140;24.762;2022-11-20T01:30:19;99007.13;;;14.72;67.74
73870;BME280;64924;42.140;24.762;2022-11-20T01:32:45;99014.38;;;14.66;68.19
73870;BME280;64924;42.140;24.762;2022-11-20T01:35:10;99005.47;;;14.71;67.89
73870;BME280;64924;42.140;24.762;2022-11-20T01:37:36;99008.31;;;14.64;68.44
73870;BME280;64924;42.140;24.762;2022-11-20T01:40:01;98993.69;;;14.70;68.04
73870;BME280;64924;42.140;24.762;2022-11-20T01:42:27;98996.41;;;14.59;68.17
73870;BME280;64924;42.140;24.762;2022-11-20T01:48:12;98972.53;;;14.54;68.42
73870;BME280;64924;42.140;24.762;2022-11-20T01:50:38;98987.75;;;14.50;68.81
73870;BME280;64924;42.140;24.762;2022-11-20T01:53:09;98983.22;;;14.56;68.83
73870;BME280;64924;42.140;24.762;2022-11-20T01:55:48;98984.19;;;14.61;68.48
73870;BME280;64924;42.140;24.762;2022-11-20T01:58:15;98984.06;;;14.56;68.36
73870;BME280;64924;42.140;24.762;2022-11-20T02:00:41;98987.97;;;14.60;68.58
73870;BME280;64924;42.140;24.762;2022-11-20T02:03:11;98975.84;;;14.68;68.03
73870;BME280;64924;42.140;24.762;2022-11-20T02:05:45;98978.94;;;14.71;67.91
73870;BME280;64924;42.140;24.762;2022-11-20T02:08:12;98974.56;;;14.70;68.23
73870;BME280;64924;42.140;24.762;2022-11-20T02:10:38;98970.50;;;14.73;67.82
73870;BME280;64924;42.140;24.762;2022-11-20T02:13:03;98979.66;;;14.79;67.39
73870;BME280;64924;42.140;24.762;2022-11-20T02:15:48;98973.84;;;14.75;67.32
73870;BME280;64924;42.140;24.762;2022-11-20T02:18:16;98972.13;;;14.86;67.35
73870;BME280;64924;42.140;24.762;2022-11-20T02:20:44;98960.03;;;14.82;66.90
73870;BME280;64924;42.140;24.762;2022-11-20T02:23:26;98957.31;;;14.82;67.02
73870;BME280;64924;42.140;24.762;2022-11-20T02:25:54;98964.91;;;14.80;67.32
73870;BME280;64924;42.140;24.762;2022-11-20T02:28:21;98952.75;;;14.87;66.89
73870;BME280;64924;42.140;24.762;2022-11-20T02:30:47;98944.94;;;14.79;67.11
73870;BME280;64924;42.140;24.762;2022-11-20T02:33:13;98919.16;;;14.52;67.23
73870;BME280;64924;42.140;24.762;2022-11-20T02:35:41;98931.16;;;14.51;67.48
73870;BME280;64924;42.140;24.762;2022-11-20T02:38:07;98953.28;;;14.73;67.29
73870;BME280;64924;42.140;24.762;2022-11-20T02:40:32;98928.69;;;14.49;67.92
73870;BME280;64924;42.140;24.762;2022-11-20T02:42:57;98940.19;;;14.51;68.24
73870;BME280;64924;42.140;24.762;2022-11-20T02:45:24;98937.59;;;14.56;68.14
73870;BME280;64924;42.140;24.762;2022-11-20T02:47:50;98939.00;;;14.59;68.02
73870;BME280;64924;42.140;24.762;2022-11-20T02:50:16;98869.50;;;14.20;68.15
73870;BME280;64924;42.140;24.762;2022-11-20T02:52:42;98939.25;;;14.57;68.25
73870;BME280;64924;42.140;24.762;2022-11-20T02:55:07;98959.69;;;14.55;68.32
73870;BME280;64924;42.140;24.762;2022-11-20T02:57:33;98952.19;;;14.50;68.55
73870;BME280;64924;42.140;24.762;2022-11-20T02:59:58;98938.94;;;14.42;68.33
73870;BME280;64924;42.140;24.762;2022-11-20T03:02:24;98935.81;;;14.50;68.41
73870;BME280;64924;42.140;24.762;2022-11-20T03:04:49;98933.47;;;14.42;68.52
73870;BME280;64924;42.140;24.762;2022-11-20T03:07:15;98940.94;;;14.47;68.52
73870;BME280;64924;42.140;24.762;2022-11-20T03:09:40;98926.28;;;14.53;68.60
73870;BME280;64924;42.140;24.762;2022-11-20T03:12:06;98938.53;;;14.50;68.91
73870;BME280;64924;42.140;24.762;2022-11-20T03:14:32;98926.06;;;14.31;68.69
73870;BME280;64924;42.140;24.762;2022-11-20T03:16:57;98931.31;;;14.44;68.72
73870;BME280;64924;42.140;24.762;2022-11-20T03:19:23;98958.41;;;14.46;69.12
73870;BME280;64924;42.140;24.762;2022-11-20T03:21:48;98938.53;;;14.38;69.15
73870;BME280;64924;42.140;24.762;2022-11-20T03:24:14;98913.69;;;14.28;69.05
73870;BME280;64924;42.140;24.762;2022-11-20T03:26:40;98937.69;;;14.50;68.96
73870;BME280;64924;42.140;24.762;2022-11-20T03:29:06;98931.91;;;14.46;68.93
73870;BME280;64924;42.140;24.762;2022-11-20T03:31:37;98928.44;;;14.51;69.17
73870;BME280;64924;42.140;24.762;2022-11-20T03:34:03;98929.19;;;14.46;69.08
73870;BME280;64924;42.140;24.762;2022-11-20T03:36:29;98900.50;;;14.25;69.29
73870;BME280;64924;42.140;24.762;2022-11-20T03:38:56;98937.47;;;14.39;69.16
73870;BME280;64924;42.140;24.762;2022-11-20T03:41:24;98926.41;;;14.34;69.56
73870;BME280;64924;42.140;24.762;2022-11-20T03:43:55;98937.94;;;14.36;69.44
73870;BME280;64924;42.140;24.762;2022-11-20T03:46:22;98942.22;;;14.32;69.98
73870;BME280;64924;42.140;24.762;2022-11-20T03:48:47;98946.25;;;14.30;70.63
73870;BME280;64924;42.140;24.762;2022-11-20T03:51:16;98937.94;;;14.36;70.71
73870;BME280;64924;42.140;24.762;2022-11-20T03:53:44;98922.25;;;14.32;70.47
73870;BME280;64924;42.140;24.762;2022-11-20T03:56:10;98933.53;;;14.35;70.88
73870;BME280;64924;42.140;24.762;2022-11-20T03:58:39;98952.72;;;14.47;70.26
73870;BME280;64924;42.140;24.762;2022-11-20T04:01:13;98903.47;;;14.24;70.45
73870;BME280;64924;42.140;24.762;2022-11-20T04:03:40;98937.09;;;14.36;70.95
73870;BME280;64924;42.140;24.762;2022-11-20T04:06:14;98953.78;;;14.46;70.82
73870;BME280;64924;42.140;24.762;2022-11-20T04:08:40;98942.25;;;14.44;70.61
73870;BME280;64924;42.140;24.762;2022-11-20T04:11:27;98944.84;;;14.51;70.58
73870;BME280;64924;42.140;24.762;2022-11-20T04:13:55;98948.41;;;14.51;71.19
73870;BME280;64924;42.140;24.762;2022-11-20T04:16:22;98949.00;;;14.53;71.27
73870;BME280;64924;42.140;24.762;2022-11-20T04:18:52;98954.00;;;14.56;71.39
73870;BME280;64924;42.140;24.762;2022-11-20T04:21:18;98931.41;;;14.37;71.29
73870;BME280;64924;42.140;24.762;2022-11-20T04:23:43;98958.84;;;14.54;71.59
73870;BME280;64924;42.140;24.762;2022-11-20T04:26:10;98947.56;;;14.62;71.89
73870;BME280;64924;42.140;24.762;2022-11-20T04:28:37;98947.09;;;14.54;71.99
73870;BME280;64924;42.140;24.762;2022-11-20T04:31:14;98919.91;;;14.47;71.35
73870;BME280;64924;42.140;24.762;2022-11-20T04:33:40;98916.19;;;14.53;70.88
73870;BME280;64924;42.140;24.762;2022-11-20T04:36:14;98938.75;;;14.72;70.65
73870;BME280;64924;42.140;24.762;2022-11-20T04:38:40;98951.13;;;14.75;70.36
73870;BME280;64924;42.140;24.762;2022-11-20T04:41:08;98920.47;;;14.61;70.58
73870;BME280;64924;42.140;24.762;2022-11-20T04:43:36;98937.69;;;14.73;70.87
73870;BME280;64924;42.140;24.762;2022-11-20T04:46:01;98952.19;;;14.74;71.90
73870;BME280;64924;42.140;24.762;2022-11-20T04:48:28;98948.41;;;14.75;72.17
73870;BME280;64924;42.140;24.762;2022-11-20T04:50:55;98939.13;;;14.64;71.69
73870;BME280;64924;42.140;24.762;2022-11-20T04:53:21;98952.78;;;14.76;71.58
73870;BME280;64924;42.140;24.762;2022-11-20T04:55:46;98951.97;;;14.75;72.38
73870;BME280;64924;42.140;24.762;2022-11-20T04:58:12;98953.75;;;14.69;72.09
73870;BME280;64924;42.140;24.762;2022-11-20T05:00:38;98953.97;;;14.68;71.92
73870;BME280;64924;42.140;24.762;2022-11-20T05:03:04;98961.00;;;14.76;71.43
73870;BME280;64924;42.140;24.762;2022-11-20T05:05:30;98941.50;;;14.84;71.00
73870;BME280;64924;42.140;24.762;2022-11-20T05:07:57;98945.78;;;14.80;71.49
73870;BME280;64924;42.140;24.762;2022-11-20T05:10:23;98960.63;;;14.84;71.74
73870;BME280;64924;42.140;24.762;2022-11-20T05:12:49;98947.03;;;14.89;71.16
73870;BME280;64924;42.140;24.762;2022-11-20T05:15:14;98968.44;;;14.92;70.97
73870;BME280;64924;42.140;24.762;2022-11-20T05:17:40;98963.22;;;14.90;70.44
73870;BME280;64924;42.140;24.762;2022-11-20T05:20:06;98960.34;;;14.97;70.26
73870;BME280;64924;42.140;24.762;2022-11-20T05:22:32;98960.88;;;14.82;71.46
73870;BME280;64924;42.140;24.762;2022-11-20T05:24:57;98965.69;;;14.92;71.46
73870;BME280;64924;42.140;24.762;2022-11-20T05:27:23;98974.97;;;15.02;70.38
73870;BME280;64924;42.140;24.762;2022-11-20T05:29:48;98966.03;;;15.07;70.18
73870;BME280;64924;42.140;24.762;2022-11-20T05:32:14;98940.69;;;15.12;69.87
73870;BME280;64924;42.140;24.762;2022-11-20T05:34:39;98946.66;;;15.09;70.34
73870;BME280;64924;42.140;24.762;2022-11-20T05:37:05;98927.38;;;15.03;69.94
73870;BME280;64924;42.140;24.762;2022-11-20T05:39:30;98954.38;;;15.40;69.10
73870;BME280;64924;42.140;24.762;2022-11-20T05:41:56;98945.09;;;15.41;68.77
73870;BME280;64924;42.140;24.762;2022-11-20T05:44:41;98950.91;;;15.45;68.59
73870;BME280;64924;42.140;24.762;2022-11-20T05:47:07;98941.13;;;15.49;68.27
73870;BME280;64924;42.140;24.762;2022-11-20T05:49:32;98951.72;;;15.57;68.54
73870;BME280;64924;42.140;24.762;2022-11-20T05:51:58;98955.31;;;15.57;67.92
73870;BME280;64924;42.140;24.762;2022-11-20T05:54:23;98977.78;;;15.59;67.64
73870;BME280;64924;42.140;24.762;2022-11-20T05:56:49;98955.91;;;15.48;68.21
73870;BME280;64924;42.140;24.762;2022-11-20T05:59:14;98977.47;;;15.44;68.21
73870;BME280;64924;42.140;24.762;2022-11-20T06:01:40;98949.72;;;15.41;67.65
73870;BME280;64924;42.140;24.762;2022-11-20T06:04:05;98959.38;;;15.43;68.01
73870;BME280;64924;42.140;24.762;2022-11-20T06:06:31;99003.53;;;15.35;68.01
73870;BME280;64924;42.140;24.762;2022-11-20T06:08:56;98941.22;;;15.25;68.60
73870;BME280;64924;42.140;24.762;2022-11-20T06:11:24;98983.25;;;15.19;68.91
73870;BME280;64924;42.140;24.762;2022-11-20T06:13:50;98991.94;;;15.16;68.76
73870;BME280;64924;42.140;24.762;2022-11-20T06:16:17;98981.69;;;15.23;68.93
73870;BME280;64924;42.140;24.762;2022-11-20T06:18:43;98909.44;;;14.96;68.69
73870;BME280;64924;42.140;24.762;2022-11-20T06:23:37;98945.19;;;15.18;68.52
73870;BME280;64924;42.140;24.762;2022-11-20T06:26:04;98977.03;;;15.24;68.32
73870;BME280;64924;42.140;24.762;2022-11-20T06:28:30;98977.13;;;15.29;68.54
73870;BME280;64924;42.140;24.762;2022-11-20T06:30:56;98981.72;;;15.12;68.48
73870;BME280;64924;42.140;24.762;2022-11-20T06:33:21;98997.53;;;15.21;68.51
73870;BME280;64924;42.140;24.762;2022-11-20T06:35:47;98980.78;;;15.18;68.53
73870;BME280;64924;42.140;24.762;2022-11-20T06:38:12;98987.16;;;15.23;68.69
73870;BME280;64924;42.140;24.762;2022-11-20T06:40:41;98991.53;;;15.36;68.39
73870;BME280;64924;42.140;24.762;2022-11-20T06:43:08;98976.28;;;15.40;68.34
73870;BME280;64924;42.140;24.762;2022-11-20T06:45:34;99006.34;;;15.52;68.08
73870;BME280;64924;42.140;24.762;2022-11-20T06:47:59;98974.47;;;15.57;67.41
73870;BME280;64924;42.140;24.762;2022-11-20T06:50:25;98999.81;;;15.81;67.29
73870;BME280;64924;42.140;24.762;2022-11-20T06:52:50;98995.47;;;15.68;67.34
73870;BME280;64924;42.140;24.762;2022-11-20T06:55:16;98987.84;;;15.70;67.28
73870;BME280;64924;42.140;24.762;2022-11-20T06:57:41;99003.81;;;15.62;67.79
73870;BME280;64924;42.140;24.762;2022-11-20T07:00:07;99007.75;;;15.66;67.53
73870;BME280;64924;42.140;24.762;2022-11-20T07:02:33;99011.78;;;15.63;67.93
73870;BME280;64924;42.140;24.762;2022-11-20T07:04:58;98978.78;;;15.42;67.85
73870;BME280;64924;42.140;24.762;2022-11-20T07:07:24;98933.59;;;15.27;67.85
73870;BME280;64924;42.140;24.762;2022-11-20T07:09:49;98992.72;;;15.68;67.80
73870;BME280;64924;42.140;24.762;2022-11-20T07:12:15;99000.41;;;15.83;67.06
73870;BME280;64924;42.140;24.762;2022-11-20T07:14:40;99001.91;;;15.91;66.95
73870;BME280;64924;42.140;24.762;2022-11-20T07:17:06;99008.13;;;15.86;66.82
73870;BME280;64924;42.140;24.762;2022-11-20T07:19:31;99010.47;;;15.94;66.93
73870;BME280;64924;42.140;24.762;2022-11-20T07:21:56;99018.69;;;15.94;66.82
73870;BME280;64924;42.140;24.762;2022-11-20T07:24:22;98986.97;;;15.82;66.82
73870;BME280;64924;42.140;24.762;2022-11-20T07:26:48;98980.06;;;15.79;67.00
73870;BME280;64924;42.140;24.762;2022-11-20T07:29:15;99014.09;;;15.83;67.21
73870;BME280;64924;42.140;24.762;2022-11-20T07:31:40;99013.63;;;15.86;66.92
73870;BME280;64924;42.140;24.762;2022-11-20T07:34:06;99014.44;;;15.87;66.54
73870;BME280;64924;42.140;24.762;2022-11-20T07:36:31;99008.81;;;15.93;66.32
73870;BME280;64924;42.140;24.762;2022-11-20T07:38:57;99018.13;;;16.09;65.96
73870;BME280;64924;42.140;24.762;2022-11-20T07:41:22;99021.28;;;16.18;65.40
73870;BME280;64924;42.140;24.762;2022-11-20T07:43:48;99034.16;;;16.34;65.56
73870;BME280;64924;42.140;24.762;2022-11-20T07:46:13;98992.31;;;16.22;65.26
73870;BME280;64924;42.140;24.762;2022-11-20T07:48:39;99023.94;;;16.46;64.97
73870;BME280;64924;42.140;24.762;2022-11-20T07:51:05;99029.03;;;16.54;64.93
73870;BME280;64924;42.140;24.762;2022-11-20T07:53:30;99018.72;;;16.61;64.54
73870;BME280;64924;42.140;24.762;2022-11-20T07:55:59;99023.53;;;16.71;64.33
73870;BME280;64924;42.140;24.762;2022-11-20T07:58:25;99018.34;;;16.69;64.34
73870;BME280;64924;42.140;24.762;2022-11-20T08:00:50;99012.06;;;16.74;64.06
73870;BME280;64924;42.140;24.762;2022-11-20T08:03:16;99009.28;;;16.69;64.47
73870;BME280;64924;42.140;24.762;2022-11-20T08:05:42;99002.19;;;16.56;64.32
73870;BME280;64924;42.140;24.762;2022-11-20T08:08:07;99025.41;;;16.65;64.36
73870;BME280;64924;42.140;24.762;2022-11-20T08:10:33;99003.25;;;16.55;64.07
73870;BME280;64924;42.140;24.762;2022-11-20T08:12:58;99015.41;;;16.59;64.22
73870;BME280;64924;42.140;24.762;2022-11-20T08:15:48;99020.25;;;16.69;64.32
73870;BME280;64924;42.140;24.762;2022-11-20T08:18:14;99018.97;;;16.77;63.92
73870;BME280;64924;42.140;24.762;2022-11-20T08:20:40;98979.41;;;16.73;64.11
73870;BME280;64924;42.140;24.762;2022-11-20T08:23:06;98995.66;;;16.96;63.48
73870;BME280;64924;42.140;24.762;2022-11-20T08:25:34;98991.25;;;16.95;63.44
73870;BME280;64924;42.140;24.762;2022-11-20T08:28:01;99012.38;;;17.16;62.75
73870;BME280;64924;42.140;24.762;2022-11-20T08:30:28;99027.41;;;17.30;62.80
73870;BME280;64924;42.140;24.762;2022-11-20T08:32:54;99013.81;;;17.41;62.18
73870;BME280;64924;42.140;24.762;2022-11-20T08:35:21;98989.97;;;17.46;61.59
73870;BME280;64924;42.140;24.762;2022-11-20T08:37:47;99009.78;;;17.70;61.43
73870;BME280;64924;42.140;24.762;2022-11-20T08:40:12;98991.38;;;17.97;61.03
73870;BME280;64924;42.140;24.762;2022-11-20T08:42:48;98983.78;;;18.42;59.14
73870;BME280;64924;42.140;24.762;2022-11-20T08:45:15;98987.56;;;18.67;57.80
73870;BME280;64924;42.140;24.762;2022-11-20T08:47:42;98983.16;;;19.14;57.55
73870;BME280;64924;42.140;24.762;2022-11-20T08:50:08;98990.78;;;19.54;56.01
73870;BME280;64924;42.140;24.762;2022-11-20T08:52:34;98973.78;;;19.92;54.77
73870;BME280;64924;42.140;24.762;2022-11-20T08:55:00;98986.50;;;20.49;53.47
73870;BME280;64924;42.140;24.762;2022-11-20T08:57:25;98954.97;;;20.86;51.90
73870;BME280;64924;42.140;24.762;2022-11-20T08:59:51;98981.66;;;21.31;50.32
73870;BME280;64924;42.140;24.762;2022-11-20T09:02:16;98974.16;;;21.37;49.88
73870;BME280;64924;42.140;24.762;2022-11-20T09:04:42;98977.16;;;21.50;49.87
73870;BME280;64924;42.140;24.762;2022-11-20T09:07:07;98965.28;;;21.50;49.13
73870;BME280;64924;42.140;24.762;2022-11-20T09:09:32;98969.72;;;21.41;49.06
73870;BME280;64924;42.140;24.762;2022-11-20T09:11:58;98978.59;;;21.38;49.11
73870;BME280;64924;42.140;24.762;2022-11-20T09:14:24;98966.84;;;21.61;48.34
73870;BME280;64924;42.140;24.762;2022-11-20T09:16:54;98945.56;;;22.06;47.59
73870;BME280;64924;42.140;24.762;2022-11-20T09:19:20;98970.50;;;22.34;47.54
73870;BME280;64924;42.140;24.762;2022-11-20T09:21:46;98958.50;;;22.15;47.47
73870;BME280;64924;42.140;24.762;2022-11-20T09:24:11;98959.56;;;21.80;48.61
73870;BME280;64924;42.140;24.762;2022-11-20T09:26:37;98949.63;;;21.74;48.94
73870;BME280;64924;42.140;24.762;2022-11-20T09:29:02;98951.34;;;21.65;49.28
73870;BME280;64924;42.140;24.762;2022-11-20T09:31:28;98939.72;;;21.68;49.88
73870;BME280;64924;42.140;24.762;2022-11-20T09:33:54;98916.56;;;21.54;50.13
73870;BME280;64924;42.140;24.762;2022-11-20T09:36:20;98936.25;;;21.52;50.90
73870;BME280;64924;42.140;24.762;2022-11-20T09:38:46;98932.38;;;21.48;50.33
73870;BME280;64924;42.140;24.762;2022-11-20T09:44:40;98923.09;;;21.73;50.16
73870;BME280;64924;42.140;24.762;2022-11-20T09:47:11;98906.44;;;21.83;49.93
73870;BME280;64924;42.140;24.762;2022-11-20T09:55:30;98876.81;;;21.89;49.16
73870;BME280;64924;42.140;24.762;2022-11-20T09:57:57;98865.06;;;21.68;49.22
73870;BME280;64924;42.140;24.762;2022-11-20T10:00:24;98883.94;;;21.95;49.65
73870;BME280;64924;42.140;24.762;2022-11-20T10:03:16;98892.50;;;21.93;48.95
73870;BME280;64924;42.140;24.762;2022-11-20T10:05:49;98893.59;;;21.97;49.14
73870;BME280;64924;42.140;24.762;2022-11-20T10:08:36;98913.69;;;22.13;49.06
73870;BME280;64924;42.140;24.762;2022-11-20T10:16:12;98891.28;;;22.15;49.17
73870;BME280;64924;42.140;24.762;2022-11-20T10:18:58;98884.19;;;21.98;49.59
73870;BME280;64924;42.140;24.762;2022-11-20T10:29:32;98875.84;;;21.69;50.57
73870;BME280;64924;42.140;24.762;2022-11-20T10:32:04;98829.88;;;21.45;50.66
73870;BME280;64924;42.140;24.762;2022-11-20T10:37:26;98869.34;;;21.89;50.64
73870;BME280;64924;42.140;24.762;2022-11-20T10:39:57;98870.78;;;21.82;50.89
73870;BME280;64924;42.140;24.762;2022-11-20T10:42:39;98860.59;;;21.77;51.19
73870;BME280;64924;42.140;24.762;2022-11-20T10:47:59;98856.78;;;21.68;51.56
73870;BME280;64924;42.140;24.762;2022-11-20T10:50:35;98847.38;;;21.69;51.74
73870;BME280;64924;42.140;24.762;2022-11-20T10:55:58;98850.09;;;21.74;51.89
73870;BME280;64924;42.140;24.762;2022-11-20T11:01:14;98855.66;;;21.69;51.26
73870;BME280;64924;42.140;24.762;2022-11-20T11:03:41;98854.06;;;21.58;51.88
73870;BME280;64924;42.140;24.762;2022-11-20T11:08:41;98826.81;;;21.46;52.06
73870;BME280;64924;42.140;24.762;2022-11-20T11:11:21;98844.50;;;21.45;52.16
73870;BME280;64924;42.140;24.762;2022-11-20T11:13:47;98837.69;;;21.27;52.82
73870;BME280;64924;42.140;24.762;2022-11-20T11:16:21;98823.34;;;21.25;52.80
73870;BME280;64924;42.140;24.762;2022-11-20T11:18:46;98789.22;;;21.01;53.10
73870;BME280;64924;42.140;24.762;2022-11-20T11:21:12;98773.50;;;20.96;52.81
73870;BME280;64924;42.140;24.762;2022-11-20T11:23:39;98778.69;;;21.08;52.38
73870;BME280;64924;42.140;24.762;2022-11-20T11:26:17;98810.91;;;21.28;52.42
73870;BME280;64924;42.140;24.762;2022-11-20T11:29:03;98782.25;;;21.14;52.90
73870;BME280;64924;42.140;24.762;2022-11-20T11:31:34;98764.63;;;21.05;53.00
73870;BME280;64924;42.140;24.762;2022-11-20T11:36:29;98796.66;;;21.06;52.36
73870;BME280;64924;42.140;24.762;2022-11-20T11:38:55;98761.38;;;20.92;52.27
73870;BME280;64924;42.140;24.762;2022-11-20T11:41:24;98806.28;;;21.13;52.23
73870;BME280;64924;42.140;24.762;2022-11-20T11:43:56;98799.66;;;21.14;52.38
73870;BME280;64924;42.140;24.762;2022-11-20T11:46:43;98808.00;;;21.04;52.71
73870;BME280;64924;42.140;24.762;2022-11-20T11:49:17;98811.09;;;20.92;52.93
73870;BME280;64924;42.140;24.762;2022-11-20T11:51:59;98814.91;;;21.01;52.80
73870;BME280;64924;42.140;24.762;2022-11-20T11:54:34;98817.94;;;21.00;52.98
73870;BME280;64924;42.140;24.762;2022-11-20T11:57:10;98813.81;;;20.97;53.48
73870;BME280;64924;42.140;24.762;2022-11-20T12:02:53;98807.22;;;20.93;53.54
73870;BME280;64924;42.140;24.762;2022-11-20T12:05:32;98812.16;;;21.01;53.39
73870;BME280;64924;42.140;24.762;2022-11-20T12:08:23;98806.28;;;21.13;53.31
73870;BME280;64924;42.140;24.762;2022-11-20T12:14:32;98802.34;;;21.19;53.39
73870;BME280;64924;42.140;24.762;2022-11-20T12:16:35;98803.22;;;21.15;53.43
73870;BME280;64924;42.140;24.762;2022-11-20T12:19:07;98800.97;;;21.17;53.25
73870;BME280;64924;42.140;24.762;2022-11-20T12:29:47;98787.50;;;21.15;51.93
73870;BME280;64924;42.140;24.762;2022-11-20T12:34:46;98794.63;;;21.21;52.09
73870;BME280;64924;42.140;24.762;2022-11-20T12:40:37;98786.59;;;21.25;49.48
73870;BME280;64924;42.140;24.762;2022-11-20T12:51:47;98767.47;;;21.33;49.27
73870;BME280;64924;42.140;24.762;2022-11-20T12:57:15;98781.59;;;21.32;46.93
73870;BME280;64924;42.140;24.762;2022-11-20T13:05:26;98768.63;;;21.27;45.29
73870;BME280;64924;42.140;24.762;2022-11-20T13:07:53;98726.28;;;20.98;44.92
73870;BME280;64924;42.140;24.762;2022-11-20T13:10:43;98781.84;;;21.35;44.77
73870;BME280;64924;42.140;24.762;2022-11-20T13:13:16;98752.16;;;21.12;45.17
73870;BME280;64924;42.140;24.762;2022-11-20T13:16:02;98756.56;;;21.13;44.82
73870;BME280;64924;42.140;24.762;2022-11-20T13:18:36;98794.31;;;21.28;44.94
73870;BME280;64924;42.140;24.762;2022-11-20T13:21:17;98794.59;;;21.26;44.46
73870;BME280;64924;42.140;24.762;2022-11-20T13:23:42;98802.34;;;21.24;44.56
73870;BME280;64924;42.140;24.762;2022-11-20T13:26:22;98798.69;;;21.34;44.65
73870;BME280;64924;42.140;24.762;2022-11-20T13:29:03;98793.78;;;21.26;44.20
73870;BME280;64924;42.140;24.762;2022-11-20T13:31:35;98807.34;;;21.22;45.05
73870;BME280;64924;42.140;24.762;2022-11-20T13:34:03;98802.13;;;21.16;44.59
73870;BME280;64924;42.140;24.762;2022-11-20T13:36:30;98806.31;;;21.08;44.14
73870;BME280;64924;42.140;24.762;2022-11-20T13:38:58;98816.25;;;21.09;43.94
73870;BME280;64924;42.140;24.762;2022-11-20T13:41:29;98804.97;;;21.00;43.56
73870;BME280;64924;42.140;24.762;2022-11-20T13:46:51;98811.34;;;20.96;43.73
73870;BME280;64924;42.140;24.762;2022-11-20T13:49:27;98817.97;;;20.95;43.12
73870;BME280;64924;42.140;24.762;2022-11-20T13:55:10;98836.22;;;20.91;42.36
73870;BME280;64924;42.140;24.762;2022-11-20T13:58:03;98811.22;;;20.67;42.63
73870;BME280;64924;42.140;24.762;2022-11-20T14:00:33;98847.06;;;20.77;42.59
73870;BME280;64924;42.140;24.762;2022-11-20T14:03:13;98868.88;;;20.74;42.66
73870;BME280;64924;42.140;24.762;2022-11-20T14:05:51;98876.09;;;20.64;44.15
73870;BME280;64924;42.140;24.762;2022-11-20T14:11:24;98864.53;;;20.37;47.25
73870;BME280;64924;42.140;24.762;2022-11-20T14:14:03;98866.50;;;20.21;47.58
73870;BME280;64924;42.140;24.762;2022-11-20T14:16:32;98859.63;;;20.03;47.54
73870;BME280;64924;42.140;24.762;2022-11-20T14:21:42;98842.53;;;19.76;46.97
73870;BME280;64924;42.140;24.762;2022-11-20T14:24:11;98863.50;;;19.82;46.63
73870;BME280;64924;42.140;24.762;2022-11-20T14:26:41;98847.25;;;19.65;46.30
73870;BME280;64924;42.140;24.762;2022-11-20T14:31:44;98840.88;;;19.55;46.55
73870;BME280;64924;42.140;24.762;2022-11-20T14:34:17;98843.59;;;19.50;46.41